Time;durP1;ratioP1;P1;durP2;ratioP2;P2;SDS_P1;SDS_P2;PMS_P1;PMS_P2;Temp;Humidity;BMP_temperature;BMP_pressure;BME280_temperature;BME280_humidity;BME280_pressure;Samples;Min_cycle;Max_cycle;Signal;HPM_P1;HPM_P2
2023/04/09 00:01:19;;;;;;;;;;;;;;;;;;4438170;32;20022;-84
2023/04/09 00:03:45;;;;;;;63.08;39.55;;;;;;;;;;4442780;32;19972;-85
2023/04/09 00:06:10;;;;;;;;;;;;;;;;;;4450798;32;20036;-81
2023/04/09 00:08:35;;;;;;;64.12;42.67;;;;;;;;;;4450669;32;19983;-84
2023/04/09 00:11:00;;;;;;;;;;;;;;;;;;4451360;32;20013;-83
2023/04/09 00:13:25;;;;;;;66.70;42.22;;;;;;;;;;4442729;32;19996;-83
2023/04/09 00:15:51;;;;;;;66.78;42.53;;;;;;;;;;4440744;32;20063;-84
2023/04/09 00:18:16;;;;;;;;;;;;;;;;;;4438638;32;20045;-84
2023/04/09 00:20:42;;;;;;;63.45;39.90;;;;;;;;;;4437553;32;19952;-84
2023/04/09 00:23:07;;;;;;;68.50;42.38;;;;;;;;;;4441652;32;20029;-83
2023/04/09 00:25:32;;;;;;;;;;;;;;;;;;4453610;32;20044;-85
2023/04/09 00:27:57;;;;;;;79.50;46.22;;;;;;;;;;4452855;32;19975;-84
2023/04/09 00:30:23;;;;;;;;;;;;;;;;;;4453354;32;20094;-84
2023/04/09 00:32:48;;;;;;;76.30;44.35;;;;;;;;;;4450956;32;19937;-84
2023/04/09 00:35:13;;;;;;;;;;;;;;;;;;4437550;32;20117;-84
2023/04/09 00:37:38;;;;;;;79.15;42.90;;;;;;;;;;4437782;32;19948;-84
2023/04/09 00:40:03;;;;;;;;;;;;;;;;;;4436621;32;20018;-84
2023/04/09 00:42:32;;;;;;;82.10;48.00;;;;;;;;;;4437125;32;19969;-84
2023/04/09 00:44:57;;;;;;;78.45;43.75;;;;;;;;;;4437225;32;20190;-84
2023/04/09 00:47:22;;;;;;;;;;;;;;;;;;4436628;32;20041;-84
2023/04/09 00:49:48;;;;;;;69.32;44.15;;;;;;;;;;4436074;32;19948;-85
2023/04/09 00:52:13;;;;;;;;;;;;;;;;;;4436774;32;20159;-85
2023/04/09 00:54:38;;;;;;;77.45;45.97;;;;;;;;;;4435233;32;20329;-85
2023/04/09 00:57:03;;;;;;;80.70;47.03;;;;;;;;;;4436900;32;20029;-84
2023/04/09 00:59:29;;;;;;;;;;;;;;;;;;4439920;32;20058;-85
2023/04/09 01:01:54;;;;;;;77.15;45.17;;;;;;;;;;4441412;32;20264;-84
2023/04/09 01:04:19;;;;;;;;;;;;;;;;;;4441833;32;20056;-84
2023/04/09 01:07:05;;;;;;;79.07;46.20;;;;;;;;;;4438188;32;19944;-85
2023/04/09 01:09:34;;;;;;;76.85;46.78;;;;;;;;;;4438263;32;20552;-84
2023/04/09 01:12:13;;;;;;;85.60;47.62;;;;;;;;;;4452234;32;20028;-85
2023/04/09 01:14:41;;;;;;;93.97;50.42;;;;;;;;;;4440944;32;20025;-85
2023/04/09 01:17:12;;;;;;;75.18;44.83;;;;;;;;;;4456499;32;20030;-85
2023/04/09 01:19:53;;;;;;;72.05;42.85;;;;;;;;;;4444463;32;20074;-85
2023/04/09 01:22:28;;;;;;;75.82;43.87;;;;;;;;;;4449476;32;20078;-85
2023/04/09 01:25:02;;;;;;;81.78;46.97;;;;;;;;;;4451403;32;20029;-85
2023/04/09 01:27:33;;;;;;;82.70;46.35;;;;;;;;;;4444500;32;20044;-84
2023/04/09 01:29:59;;;;;;;89.75;48.17;;;;;;;;;;4441828;32;20410;-85
2023/04/09 01:32:25;;;;;;;86.18;47.88;;;;;;;;;;4443229;32;20021;-83
2023/04/09 01:34:50;;;;;;;;;;;;;;;;;;4441609;32;20051;-84
2023/04/09 01:37:17;;;;;;;84.72;46.88;;;;;;;;;;4442430;32;19984;-84
2023/04/09 01:39:42;;;;;;;74.72;43.60;;;;;;;;;;4462422;32;20116;-84
2023/04/09 01:42:09;;;;;;;;;;;;;;;;;;4452173;32;20080;-83
2023/04/09 01:44:37;;;;;;;73.10;43.70;;;;;;;;;;4447813;32;19928;-84
2023/04/09 01:47:02;;;;;;;80.32;46.37;;;;;;;;;;4450228;32;20029;-83
2023/04/09 01:49:27;;;;;;;;;;;;;;;;;;4451404;32;20040;-83
2023/04/09 01:51:52;;;;;;;73.50;44.67;;;;;;;;;;4448245;32;19943;-83
2023/04/09 01:54:18;;;;;;;71.00;44.72;;;;;;;;;;4441355;32;20052;-84
2023/04/09 01:56:43;;;;;;;;;;;;;;;;;;4441047;32;20473;-85
2023/04/09 01:59:08;;;;;;;70.72;42.10;;;;;;;;;;4440683;32;19937;-83
2023/04/09 02:01:33;;;;;;;;;;;;;;;;;;4441244;32;20025;-84
2023/04/09 02:04:01;;;;;;;66.32;42.95;;;;;;;;;;4454445;32;19940;-85
2023/04/09 02:06:53;;;;;;;65.40;40.95;;;;;;;;;;4441719;32;20157;-84
2023/04/09 02:09:19;;;;;;;73.97;43.90;;;;;;;;;;4437589;32;20026;-84
2023/04/09 02:11:45;;;;;;;68.28;41.67;;;;;;;;;;4440442;32;20365;-84
2023/04/09 02:14:10;;;;;;;;;;;;;;;;;;4442303;32;20093;-84
2023/04/09 02:16:35;;;;;;;55.12;37.95;;;;;;;;;;4440969;32;19968;-84
2023/04/09 02:19:00;;;;;;;;;;;;;;;;;;4456485;32;20143;-84
2023/04/09 02:21:26;;;;;;;61.75;38.90;;;;;;;;;;4469856;32;19956;-83
2023/04/09 02:23:51;;;;;;;;;;;;;;;;;;4464037;32;20143;-84
2023/04/09 02:26:16;;;;;;;56.05;36.92;;;;;;;;;;4455304;32;19941;-84
2023/04/09 02:28:41;;;;;;;;;;;;;;;;;;4440654;32;20043;-85
2023/04/09 02:31:07;;;;;;;50.70;34.55;;;;;;;;;;4440954;32;19932;-85
2023/04/09 02:33:32;;;;;;;55.47;37.25;;;;;;;;;;4440742;32;20022;-85
2023/04/09 02:35:57;;;;;;;48.97;34.33;;;;;;;;;;4456988;32;20021;-84
2023/04/09 02:38:22;;;;;;;;;;;;;;;;;;4460698;32;20383;-85
2023/04/09 02:40:47;;;;;;;48.38;32.47;;;;;;;;;;4447506;32;19932;-84
2023/04/09 02:43:12;;;;;;;;;;;;;;;;;;4446073;32;20143;-84
2023/04/09 02:45:38;;;;;;;44.47;31.17;;;;;;;;;;4470663;32;19936;-85
2023/04/09 02:48:03;;;;;;;43.55;31.92;;;;;;;;;;4453540;32;20025;-84
2023/04/09 02:50:28;;;;;;;44.05;30.98;;;;;;;;;;4448018;32;20074;-84
2023/04/09 02:52:53;;;;;;;;;;;;;;;;;;4441466;32;20115;-85
2023/04/09 02:55:19;;;;;;;42.85;30.75;;;;;;;;;;4441027;32;20286;-84
2023/04/09 02:57:44;;;;;;;42.58;29.30;;;;;;;;;;4441651;32;20041;-83
2023/04/09 03:00:10;;;;;;;49.53;33.33;;;;;;;;;;4457512;32;20100;-83
2023/04/09 03:02:35;;;;;;;43.42;30.37;;;;;;;;;;4443671;32;20192;-82
2023/04/09 03:05:00;;;;;;;;;;;;;;;;;;4445265;32;20025;-83
2023/04/09 03:07:25;;;;;;;42.88;30.83;;;;;;;;;;4449057;32;20001;-83
2023/04/09 03:09:51;;;;;;;38.38;28.23;;;;;;;;;;4448394;32;20022;-84
2023/04/09 03:12:16;;;;;;;43.08;32.35;;;;;;;;;;4441494;32;20323;-85
2023/04/09 03:14:41;;;;;;;;;;;;;;;;;;4441349;32;20025;-83
2023/04/09 03:17:07;;;;;;;38.38;29.25;;;;;;;;;;4439450;32;19968;-83
2023/04/09 03:19:32;;;;;;;47.28;31.85;;;;;;;;;;4439419;32;20024;-84
2023/04/09 03:21:57;;;;;;;;;;;;;;;;;;4454787;32;20025;-82
2023/04/09 03:24:22;;;;;;;39.72;30.05;;;;;;;;;;4440943;32;19943;-84
2023/04/09 03:26:47;;;;;;;;;;;;;;;;;;4440419;32;20113;-84
2023/04/09 03:29:13;;;;;;;43.92;31.70;;;;;;;;;;4439781;32;19996;-85
2023/04/09 03:31:38;;;;;;;38.58;29.45;;;;;;;;;;4453115;32;20025;-85
2023/04/09 03:34:03;;;;;;;;;;;;;;;;;;4439621;32;20466;-84
2023/04/09 03:36:28;;;;;;;40.25;28.42;;;;;;;;;;4438849;32;19940;-84
2023/04/09 03:38:53;;;;;;;;;;;;;;;;;;4438747;32;20124;-84
2023/04/09 03:41:18;;;;;;;40.05;29.17;;;;;;;;;;4452889;32;20013;-85
2023/04/09 03:43:44;;;;;;;45.35;31.80;;;;;;;;;;4439005;32;20055;-84
2023/04/09 03:46:09;;;;;;;;;;;;;;;;;;4440384;32;20411;-84
2023/04/09 03:48:34;;;;;;;50.47;33.80;;;;;;;;;;4467737;32;19921;-83
2023/04/09 03:50:59;;;;;;;;;;;;;;;;;;4441602;32;20104;-85
2023/04/09 03:53:25;;;;;;;49.00;32.22;;;;;;;;;;4455551;32;19964;-84
2023/04/09 03:55:50;;;;;;;;;;;;;;;;;;4439675;32;20025;-84
2023/04/09 03:58:15;;;;;;;47.88;32.03;;;;;;;;;;4438918;32;19945;-84
2023/04/09 04:00:42;;;;;;;43.00;32.03;;;;;;;;;;4453786;32;20037;-85
2023/04/09 04:03:07;;;;;;;46.55;33.55;;;;;;;;;;4453664;32;20033;-85
2023/04/09 04:05:32;;;;;;;;;;;;;;;;;;4439738;32;20033;-85
2023/04/09 04:07:57;;;;;;;47.17;33.97;;;;;;;;;;4440996;32;19973;-85
2023/04/09 04:10:22;;;;;;;46.35;32.33;;;;;;;;;;4448523;32;20037;-86
2023/04/09 04:12:47;;;;;;;;;;;;;;;;;;4451454;32;20118;-83
2023/04/09 04:15:13;;;;;;;44.88;32.58;;;;;;;;;;4451920;32;19932;-85
2023/04/09 04:17:38;;;;;;;;;;;;;;;;;;4442123;32;20155;-84
2023/04/09 04:20:03;;;;;;;45.55;33.45;;;;;;;;;;4441928;32;20328;-85
2023/04/09 04:22:28;;;;;;;;;;;;;;;;;;4440730;32;20204;-84
2023/04/09 04:24:54;;;;;;;42.50;33.08;;;;;;;;;;4441049;32;19999;-85
2023/04/09 04:27:19;;;;;;;45.95;32.80;;;;;;;;;;4441234;32;20376;-85
2023/04/09 04:29:44;;;;;;;46.35;32.17;;;;;;;;;;4445573;32;20029;-85
2023/04/09 04:32:09;;;;;;;;;;;;;;;;;;4456666;32;20079;-83
2023/04/09 04:34:34;;;;;;;38.63;29.80;;;;;;;;;;4455264;32;19920;-85
2023/04/09 04:36:59;;;;;;;;;;;;;;;;;;4463439;32;20193;-85
2023/04/09 04:39:25;;;;;;;42.17;30.08;;;;;;;;;;4448019;32;19941;-85
2023/04/09 04:41:50;;;;;;;41.83;31.62;;;;;;;;;;4449835;32;20048;-83
2023/04/09 04:44:15;;;;;;;;;;;;;;;;;;4446857;32;20074;-84
2023/04/09 04:46:40;;;;;;;43.47;32.30;;;;;;;;;;4438872;32;19996;-84
2023/04/09 04:49:05;;;;;;;43.40;32.17;;;;;;;;;;4441061;32;20056;-84
2023/04/09 04:51:31;;;;;;;;;;;;;;;;;;4441615;32;20071;-83
2023/04/09 04:53:56;;;;;;;44.47;32.17;;;;;;;;;;4439916;32;19932;-84
2023/04/09 04:56:21;;;;;;;;;;;;;;;;;;4439375;32;20021;-85
2023/04/09 04:58:46;;;;;;;46.67;33.35;;;;;;;;;;4438342;32;19994;-85
2023/04/09 05:01:12;;;;;;;43.58;31.10;;;;;;;;;;4438747;32;20418;-84
2023/04/09 05:03:37;;;;;;;;;;;;;;;;;;4439298;32;20120;-84
2023/04/09 05:06:02;;;;;;;46.05;32.95;;;;;;;;;;4439904;32;19932;-84
2023/04/09 05:08:27;;;;;;;48.08;33.33;;;;;;;;;;4452696;32;20354;-85
2023/04/09 05:10:54;;;;;;;44.40;33.75;;;;;;;;;;4437678;32;20116;-85
2023/04/09 05:13:20;;;;;;;47.50;34.58;;;;;;;;;;4438429;32;20048;-85
2023/04/09 05:15:45;;;;;;;;;;;;;;;;;;4438723;32;20052;-84
2023/04/09 05:18:11;;;;;;;43.50;30.60;;;;;;;;;;4439764;32;19939;-84
2023/04/09 05:20:36;;;;;;;;;;;;;;;;;;4439450;32;20350;-85
2023/04/09 05:23:01;;;;;;;43.35;30.83;;;;;;;;;;4442520;32;19991;-83
2023/04/09 05:25:26;;;;;;;;;;;;;;;;;;4446068;32;20121;-83
2023/04/09 05:27:51;;;;;;;43.92;30.88;;;;;;;;;;4446791;32;20463;-83
2023/04/09 05:30:16;;;;;;;;;;;;;;;;;;4442847;32;20165;-84
2023/04/09 05:32:42;;;;;;;45.38;30.90;;;;;;;;;;4455658;32;19968;-83
2023/04/09 05:35:07;;;;;;;;;;;;;;;;;;4442165;32;20330;-84
2023/04/09 05:37:32;;;;;;;39.63;28.45;;;;;;;;;;4441749;32;19965;-83
2023/04/09 05:39:57;;;;;;;44.10;30.90;;;;;;;;;;4441054;32;20014;-85
2023/04/09 05:42:22;;;;;;;46.35;32.17;;;;;;;;;;4439042;32;20048;-85
2023/04/09 05:44:47;;;;;;;;;;;;;;;;;;4438870;32;20022;-85
2023/04/09 05:47:13;;;;;;;42.58;29.10;;;;;;;;;;4438153;32;20365;-85
2023/04/09 05:49:38;;;;;;;42.20;30.23;;;;;;;;;;4439489;32;20065;-85
2023/04/09 05:52:03;;;;;;;;;;;;;;;;;;4453956;32;20029;-84
2023/04/09 05:54:30;;;;;;;46.85;31.20;;;;;;;;;;4438969;32;20345;-85
2023/04/09 05:56:55;;;;;;;45.00;32.33;;;;;;;;;;4438494;32;20117;-85
2023/04/09 05:59:20;;;;;;;;;;;;;;;;;;4438321;32;20089;-85
2023/04/09 06:01:45;;;;;;;45.05;31.05;;;;;;;;;;4439838;32;19979;-86
2023/04/09 06:04:10;;;;;;;;;;;;;;;;;;4441350;32;20121;-85
2023/04/09 06:06:39;;;;;;;45.15;30.50;;;;;;;;;;4441395;32;19944;-85
2023/04/09 06:09:04;;;;;;;44.35;31.60;;;;;;;;;;4440900;32;20158;-85
2023/04/09 06:11:29;;;;;;;;;;;;;;;;;;4456108;32;20030;-85
2023/04/09 06:13:54;;;;;;;48.50;31.25;;;;;;;;;;4441298;32;20333;-86
2023/04/09 06:16:19;;;;;;;;;;;;;;;;;;4455034;32;20025;-85
2023/04/09 06:18:45;;;;;;;54.17;34.90;;;;;;;;;;4441298;32;19937;-85
2023/04/09 06:21:12;;;;;;;49.35;32.80;;;;;;;;;;4449212;32;20051;-85
2023/04/09 06:23:37;;;;;;;48.63;32.80;;;;;;;;;;4448782;32;20074;-84
2023/04/09 06:26:02;;;;;;;;;;;;;;;;;;4459064;32;20025;-84
2023/04/09 06:28:28;;;;;;;58.35;36.78;;;;;;;;;;4465777;32;19976;-83
2023/04/09 06:30:54;;;;;;;;;;;;;;;;;;4451511;32;20124;-85
2023/04/09 06:33:19;;;;;;;50.70;34.00;;;;;;;;;;4441273;32;20285;-85
2023/04/09 06:35:44;;;;;;;;;;;;;;;;;;4441668;32;20056;-84
2023/04/09 06:38:09;;;;;;;63.90;37.28;;;;;;;;;;4447016;32;19937;-85
2023/04/09 06:40:38;;;;;;;64.30;38.90;;;;;;;;;;4464802;32;20025;-84
2023/04/09 06:43:04;;;;;;;56.95;35.47;;;;;;;;;;4457598;32;20124;-84
2023/04/09 06:45:30;;;;;;;61.25;37.85;;;;;;;;;;4455064;32;20033;-84
2023/04/09 06:47:55;;;;;;;;;;;;;;;;;;4449525;32;20064;-86
2023/04/09 06:50:20;;;;;;;73.45;42.53;;;;;;;;;;4441379;32;19940;-85
2023/04/09 06:52:45;;;;;;;81.55;48.47;;;;;;;;;;4441192;32;20513;-84
2023/04/09 06:55:10;;;;;;;;;;;;;;;;;;4441083;32;20084;-86
2023/04/09 06:57:38;;;;;;;86.95;46.63;;;;;;;;;;4440170;32;20306;-85
2023/04/09 07:00:03;;;;;;;84.15;46.33;;;;;;;;;;4443221;32;20077;-85
2023/04/09 07:02:28;;;;;;;;;;;;;;;;;;4462563;32;20033;-85
2023/04/09 07:04:53;;;;;;;84.28;45.78;;;;;;;;;;4456110;32;19936;-84
2023/04/09 07:07:19;;;;;;;87.45;45.42;;;;;;;;;;4453026;32;20025;-84
2023/04/09 07:09:45;;;;;;;79.43;46.58;;;;;;;;;;4451932;32;20044;-84
2023/04/09 07:12:10;;;;;;;;;;;;;;;;;;4451550;32;20014;-83
2023/04/09 07:14:35;;;;;;;88.35;45.35;;;;;;;;;;4443865;32;19964;-84
2023/04/09 07:17:00;;;;;;;;;;;;;;;;;;4454833;32;20147;-83
2023/04/09 07:19:25;;;;;;;84.50;46.15;;;;;;;;;;4441263;32;20023;-84
2023/04/09 07:21:51;;;;;;;84.93;45.97;;;;;;;;;;4440059;32;20069;-83
2023/04/09 07:24:16;;;;;;;;;;;;;;;;;;4440611;32;20053;-83
2023/04/09 07:26:41;;;;;;;79.40;46.80;;;;;;;;;;4439129;32;19956;-84
2023/04/09 07:29:06;;;;;;;84.55;50.35;;;;;;;;;;4453260;32;20045;-81
2023/04/09 07:31:32;;;;;;;89.97;52.85;;;;;;;;;;4453423;32;20098;-81
2023/04/09 07:33:57;;;;;;;;;;;;;;;;;;4439193;32;20056;-82
2023/04/09 07:36:22;;;;;;;89.53;50.65;;;;;;;;;;4452532;32;20295;-82
2023/04/09 07:38:48;;;;;;;88.75;51.22;;;;;;;;;;4452568;32;20081;-81
2023/04/09 07:41:13;;;;;;;90.03;51.17;;;;;;;;;;4452925;32;20052;-81
2023/04/09 07:43:39;;;;;;;;;;;;;;;;;;4438850;32;20018;-81
2023/04/09 07:46:04;;;;;;;89.65;53.13;;;;;;;;;;4438550;32;19944;-82
2023/04/09 07:48:29;;;;;;;;;;;;;;;;;;4453074;32;20068;-82
2023/04/09 07:50:54;;;;;;;94.15;50.22;;;;;;;;;;4452285;32;19937;-81
2023/04/09 07:53:20;;;;;;;;;;;;;;;;;;4453093;32;20081;-81
2023/04/09 07:55:45;;;;;;;87.80;51.13;;;;;;;;;;4453746;32;19943;-81
2023/04/09 07:58:10;;;;;;;;;;;;;;;;;;4438687;32;20136;-81
2023/04/09 08:00:35;;;;;;;83.60;49.97;;;;;;;;;;4438258;32;19968;-82
2023/04/09 08:03:02;;;;;;;;;;;;;;;;;;4452632;32;20071;-82
2023/04/09 08:05:27;;;;;;;74.75;48.05;;;;;;;;;;4451950;32;19936;-81
2023/04/09 08:07:52;;;;;;;;;;;;;;;;;;4438179;32;20086;-81
2023/04/09 08:10:18;;;;;;;83.22;50.05;;;;;;;;;;4437979;32;19944;-81
2023/04/09 08:12:43;;;;;;;80.22;50.60;;;;;;;;;;4452505;32;20052;-82
2023/04/09 08:15:09;;;;;;;80.55;49.35;;;;;;;;;;4452363;32;20030;-81
2023/04/09 08:17:36;;;;;;;73.75;46.92;;;;;;;;;;4438405;32;20105;-81
2023/04/09 08:20:01;;;;;;;79.18;46.80;;;;;;;;;;4451764;32;20055;-82
2023/04/09 08:22:26;;;;;;;;;;;;;;;;;;4452918;32;20029;-82
2023/04/09 08:24:52;;;;;;;74.93;46.85;;;;;;;;;;4451577;32;19947;-82
2023/04/09 08:27:17;;;;;;;;;;;;;;;;;;4439754;32;20141;-79
2023/04/09 08:29:42;;;;;;;77.85;47.80;;;;;;;;;;4453966;32;19948;-81
2023/04/09 08:32:08;;;;;;;;;;;;;;;;;;4453394;32;20109;-81
2023/04/09 08:34:33;;;;;;;78.28;49.50;;;;;;;;;;4454149;32;19933;-81
2023/04/09 08:36:58;;;;;;;;;;;;;;;;;;4440532;32;20162;-81
2023/04/09 08:39:24;;;;;;;75.78;49.33;;;;;;;;;;4459346;32;19943;-82
2023/04/09 08:41:50;;;;;;;78.28;48.97;;;;;;;;;;4451981;32;20030;-80
2023/04/09 08:44:16;;;;;;;80.97;53.40;;;;;;;;;;4438057;32;20030;-81
2023/04/09 08:46:41;;;;;;;;;;;;;;;;;;4439199;32;20018;-80
2023/04/09 08:49:07;;;;;;;78.00;49.83;;;;;;;;;;4452734;32;19932;-80
2023/04/09 08:51:32;;;;;;;;;;;;;;;;;;4453941;32;20025;-81
2023/04/09 08:53:58;;;;;;;74.47;45.75;;;;;;;;;;4445153;32;19963;-81
2023/04/09 08:56:25;;;;;;;73.37;45.22;;;;;;;;;;4455689;32;20426;-81
2023/04/09 08:58:51;;;;;;;76.55;48.08;;;;;;;;;;4453433;32;20045;-81
2023/04/09 09:01:16;;;;;;;;;;;;;;;;;;4461207;32;20053;-80
2023/04/09 09:04:11;;;;;;;72.97;46.50;;;;;;;;;;4460732;32;19965;-81
2023/04/09 09:06:37;;;;;;;63.90;42.33;;;;;;;;;;4443803;32;20053;-80
2023/04/09 09:09:07;;;;;;;71.93;43.83;;;;;;;;;;4466773;32;20005;-80
2023/04/09 09:11:33;;;;;;;71.60;45.92;;;;;;;;;;4461419;32;20026;-82
2023/04/09 09:13:58;;;;;;;;;;;;;;;;;;4440794;32;20048;-81
2023/04/09 09:16:23;;;;;;;68.57;45.63;;;;;;;;;;4437669;32;19937;-80
2023/04/09 09:18:48;;;;;;;;;;;;;;;;;;4444655;32;20124;-81
2023/04/09 09:21:15;;;;;;;66.72;47.03;;;;;;;;;;4451777;32;19941;-80
2023/04/09 09:23:41;;;;;;;71.50;49.38;;;;;;;;;;4455571;32;20172;-80
2023/04/09 09:26:20;;;;;;;70.60;47.95;;;;;;;;;;4445081;32;20119;-80
2023/04/09 09:28:47;;;;;;;72.05;48.50;;;;;;;;;;4443383;32;20373;-82
2023/04/09 09:31:12;;;;;;;68.25;49.50;;;;;;;;;;4468585;32;20021;-81
2023/04/09 09:33:37;;;;;;;;;;;;;;;;;;4458852;32;20042;-80
2023/04/09 09:36:03;;;;;;;70.00;47.53;;;;;;;;;;4456155;32;19936;-81
2023/04/09 09:38:28;;;;;;;66.90;45.25;;;;;;;;;;4449510;32;20021;-81
2023/04/09 09:40:53;;;;;;;;;;;;;;;;;;4454942;32;20021;-80
2023/04/09 09:43:19;;;;;;;63.10;42.70;;;;;;;;;;4454898;32;19951;-80
2023/04/09 09:45:45;;;;;;;;;;;;;;;;;;4456317;32;20127;-81
2023/04/09 09:48:11;;;;;;;56.83;37.92;;;;;;;;;;4458442;32;20287;-82
2023/04/09 09:50:37;;;;;;;54.70;37.72;;;;;;;;;;4446596;32;20495;-82
2023/04/09 09:53:04;;;;;;;60.72;39.17;;;;;;;;;;4445361;32;20068;-78
2023/04/09 09:55:31;;;;;;;55.83;35.53;;;;;;;;;;4436520;32;20085;-82
2023/04/09 09:57:57;;;;;;;54.50;38.28;;;;;;;;;;4427434;32;20030;-85
2023/04/09 10:00:24;;;;;;;51.22;34.72;;;;;;;;;;4427546;32;20022;-82
2023/04/09 10:02:55;;;;;;;57.75;39.50;;;;;;;;;;4429757;32;20048;-79
2023/04/09 10:05:26;;;;;;;57.72;38.88;;;;;;;;;;4452138;32;20062;-81
2023/04/09 10:07:56;;;;;;;59.63;40.75;;;;;;;;;;4451511;32;20067;-79
2023/04/09 10:10:22;;;;;;;50.53;35.13;;;;;;;;;;4447049;32;20042;-79
2023/04/09 10:12:47;;;;;;;50.00;35.63;;;;;;;;;;4441541;32;20026;-79
2023/04/09 10:15:12;;;;;;;51.05;34.58;;;;;;;;;;4439777;32;20025;-80
2023/04/09 10:17:38;;;;;;;56.20;38.40;;;;;;;;;;4428917;32;20048;-82
2023/04/09 10:20:09;;;;;;;48.72;34.30;;;;;;;;;;4444540;32;20077;-82
2023/04/09 10:22:35;;;;;;;51.08;34.47;;;;;;;;;;4444492;32;20021;-78
2023/04/09 10:25:01;;;;;;;57.17;36.90;;;;;;;;;;4442423;32;20070;-82
2023/04/09 10:27:27;;;;;;;52.83;36.67;;;;;;;;;;4444727;32;20075;-81
2023/04/09 10:29:52;;;;;;;50.33;36.35;;;;;;;;;;4445122;32;20022;-81
2023/04/09 10:32:25;;;;;;;51.70;35.00;;;;;;;;;;4472303;32;20405;-85
2023/04/09 10:34:50;;;;;;;52.38;35.05;;;;;;;;;;4449638;32;20017;-83
2023/04/09 10:37:20;;;;;;;49.05;33.83;;;;;;;;;;4456792;32;20002;-84
2023/04/09 10:39:47;;;;;;;46.78;33.22;;;;;;;;;;4457617;32;20051;-84
2023/04/09 10:42:13;;;;;;;46.95;34.42;;;;;;;;;;4457770;32;20075;-85
2023/04/09 10:44:40;;;;;;;46.40;33.65;;;;;;;;;;4452225;32;20029;-88
2023/04/09 10:47:06;;;;;;;46.22;34.65;;;;;;;;;;4457099;32;20061;-88
2023/04/09 10:49:39;;;;;;;49.97;37.25;;;;;;;;;;4456966;32;20010;-84
2023/04/09 10:52:12;;;;;;;44.58;34.28;;;;;;;;;;4470731;32;20009;-85
2023/04/09 10:54:42;;;;;;;51.50;37.63;;;;;;;;;;4456574;32;20001;-84
2023/04/09 10:57:07;;;;;;;51.60;38.00;;;;;;;;;;4462916;32;20037;-80
2023/04/09 10:59:33;;;;;;;49.70;36.28;;;;;;;;;;4468686;32;20048;-79
2023/04/09 11:01:58;;;;;;;48.45;34.72;;;;;;;;;;4456439;32;20029;-84
2023/04/09 11:04:23;;;;;;;;;;;;;;;;;;4457609;32;20006;-85
2023/04/09 11:06:49;;;;;;;50.95;36.35;;;;;;;;;;4452358;32;20326;-80
2023/04/09 11:09:14;;;;;;;48.95;35.08;;;;;;;;;;4469277;32;20039;-84
2023/04/09 11:11:40;;;;;;;50.65;38.30;;;;;;;;;;4486187;32;20029;-88
2023/04/09 11:14:05;;;;;;;47.40;35.17;;;;;;;;;;4444330;32;20022;-81
2023/04/09 11:16:33;;;;;;;47.80;38.53;;;;;;;;;;4463738;32;20013;-85
2023/04/09 11:18:59;;;;;;;48.40;36.38;;;;;;;;;;4460100;32;20021;-86
2023/04/09 11:21:27;;;;;;;47.38;34.40;;;;;;;;;;4460665;32;20043;-86
2023/04/09 11:23:52;;;;;;;44.60;35.95;;;;;;;;;;4444679;32;20022;-84
2023/04/09 11:26:36;;;;;;;42.20;33.13;;;;;;;;;;4447872;32;20055;-91
2023/04/09 11:29:07;;;;;;;45.12;36.15;;;;;;;;;;4456077;32;20055;-86
2023/04/09 11:31:32;;;;;;;44.55;34.15;;;;;;;;;;4456245;32;20074;-89
2023/04/09 11:33:57;;;;;;;44.47;33.70;;;;;;;;;;4436306;32;20057;-89
2023/04/09 11:36:22;;;;;;;46.90;34.00;;;;;;;;;;4443013;32;20030;-87
2023/04/09 11:38:49;;;;;;;42.97;32.58;;;;;;;;;;4449513;32;20052;-86
2023/04/09 11:41:14;;;;;;;41.15;32.13;;;;;;;;;;4450182;32;20021;-86
2023/04/09 11:43:39;;;;;;;42.90;34.33;;;;;;;;;;4463236;32;20050;-85
2023/04/09 11:46:06;;;;;;;37.83;30.83;;;;;;;;;;4445789;32;20025;-86
2023/04/09 11:48:32;;;;;;;41.20;31.35;;;;;;;;;;4428977;32;20044;-90
2023/04/09 11:50:57;;;;;;;40.55;30.85;;;;;;;;;;4427632;32;20366;-88
2023/04/09 11:53:23;;;;;;;39.88;32.10;;;;;;;;;;4439226;32;20045;-84
2023/04/09 11:55:50;;;;;;;39.55;29.90;;;;;;;;;;4446472;32;20029;-88
2023/04/09 11:58:16;;;;;;;37.72;27.90;;;;;;;;;;4462990;32;20069;-87
2023/04/09 12:00:41;;;;;;;34.65;27.20;;;;;;;;;;4464102;32;20007;-86
2023/04/09 12:03:06;;;;;;;34.72;26.60;;;;;;;;;;4455709;32;20116;-83
2023/04/09 12:05:33;;;;;;;31.85;25.70;;;;;;;;;;4447398;32;20044;-83
2023/04/09 12:07:59;;;;;;;35.83;27.40;;;;;;;;;;4456482;32;20098;-84
2023/04/09 12:10:26;;;;;;;31.00;24.52;;;;;;;;;;4447220;32;20018;-84
2023/04/09 12:12:51;;;;;;;31.98;26.02;;;;;;;;;;4444969;32;20394;-84
2023/04/09 12:15:24;;;;;;;35.05;26.77;;;;;;;;;;4442445;32;20075;-88
2023/04/09 12:17:53;;;;;;;31.33;25.35;;;;;;;;;;4439179;32;20026;-87
2023/04/09 12:20:28;;;;;;;35.80;27.05;;;;;;;;;;4444504;32;20029;-86
2023/04/09 12:22:54;;;;;;;34.63;25.27;;;;;;;;;;4445374;32;20025;-87
2023/04/09 12:25:19;;;;;;;31.15;23.40;;;;;;;;;;4436080;32;20142;-85
2023/04/09 12:27:45;;;;;;;30.45;24.60;;;;;;;;;;4452108;32;20017;-86
2023/04/09 12:30:11;;;;;;;29.12;24.00;;;;;;;;;;4454942;32;19998;-85
2023/04/09 12:32:36;;;;;;;30.67;25.27;;;;;;;;;;4451175;32;20404;-88
2023/04/09 12:35:01;;;;;;;30.00;26.35;;;;;;;;;;4443188;32;20366;-86
2023/04/09 12:37:27;;;;;;;27.60;23.65;;;;;;;;;;4456800;32;20062;-86
2023/04/09 12:39:53;;;;;;;32.58;24.33;;;;;;;;;;4452844;32;20006;-88
2023/04/09 12:42:18;;;;;;;27.75;23.87;;;;;;;;;;4455287;32;20034;-84
2023/04/09 12:44:43;;;;;;;28.25;23.05;;;;;;;;;;4455579;32;20016;-86
2023/04/09 12:47:08;;;;;;;29.33;25.48;;;;;;;;;;4453839;32;20025;-86
2023/04/09 12:49:33;;;;;;;25.50;22.75;;;;;;;;;;4451692;32;20100;-87
2023/04/09 12:51:59;;;;;;;27.05;23.27;;;;;;;;;;4444923;32;20072;-86
2023/04/09 12:54:25;;;;;;;25.42;21.77;;;;;;;;;;4445847;32;20032;-87
2023/04/09 12:56:50;;;;;;;26.10;22.87;;;;;;;;;;4450796;32;20033;-88
2023/04/09 12:59:15;;;;;;;29.67;24.75;;;;;;;;;;4446363;32;20124;-88
2023/04/09 13:01:41;;;;;;;26.45;23.33;;;;;;;;;;4448844;32;20033;-89
2023/04/09 13:04:06;;;;;;;30.35;24.58;;;;;;;;;;4445046;32;20079;-87
2023/04/09 13:06:31;;;;;;;33.33;26.27;;;;;;;;;;4465535;32;20177;-87
2023/04/09 13:08:57;;;;;;;32.03;25.73;;;;;;;;;;4453867;32;20014;-88
2023/04/09 13:11:22;;;;;;;33.22;25.55;;;;;;;;;;4455757;32;20033;-89
2023/04/09 13:13:47;;;;;;;36.33;24.55;;;;;;;;;;4452603;32;20065;-88
2023/04/09 13:16:12;;;;;;;33.63;22.87;;;;;;;;;;4455265;32;20017;-87
2023/04/09 13:18:37;;;;;;;35.60;24.10;;;;;;;;;;4452797;32;20018;-88
2023/04/09 13:21:03;;;;;;;36.10;25.55;;;;;;;;;;4452382;32;20032;-89
2023/04/09 13:23:28;;;;;;;33.40;24.17;;;;;;;;;;4449419;32;20017;-87
2023/04/09 13:25:53;;;;;;;30.73;24.73;;;;;;;;;;4449200;32;20017;-87
2023/04/09 13:28:19;;;;;;;25.62;21.50;;;;;;;;;;4448985;32;20041;-86
2023/04/09 13:30:49;;;;;;;25.42;20.52;;;;;;;;;;4448872;32;20041;-87
2023/04/09 13:33:15;;;;;;;24.12;19.10;;;;;;;;;;4439064;32;20084;-89
2023/04/09 13:35:40;;;;;;;26.55;22.08;;;;;;;;;;4439673;32;20044;-87
2023/04/09 13:38:06;;;;;;;24.00;21.40;;;;;;;;;;4447314;32;20057;-87
2023/04/09 13:40:31;;;;;;;26.15;21.17;;;;;;;;;;4448380;32;20441;-89
2023/04/09 13:42:57;;;;;;;25.37;21.05;;;;;;;;;;4446475;32;20056;-88
2023/04/09 13:45:22;;;;;;;26.85;20.77;;;;;;;;;;4445644;32;20078;-88
2023/04/09 13:47:48;;;;;;;22.10;19.60;;;;;;;;;;4459662;32;20030;-88
2023/04/09 13:50:13;;;;;;;23.42;20.60;;;;;;;;;;4454860;32;20025;-87
2023/04/09 13:52:38;;;;;;;21.80;19.15;;;;;;;;;;4453887;32;20020;-86
2023/04/09 13:55:04;;;;;;;25.10;19.55;;;;;;;;;;4443682;32;20041;-88
2023/04/09 13:57:29;;;;;;;24.83;20.25;;;;;;;;;;4450013;32;20106;-88
2023/04/09 13:59:54;;;;;;;22.60;20.25;;;;;;;;;;4456295;32;20021;-86
2023/04/09 14:02:19;;;;;;;24.23;21.23;;;;;;;;;;4440662;32;20052;-89
2023/04/09 14:04:45;;;;;;;22.80;19.20;;;;;;;;;;4438835;32;20056;-87
2023/04/09 14:07:10;;;;;;;23.35;19.42;;;;;;;;;;4443979;32;20118;-87
2023/04/09 14:09:35;;;;;;;23.87;19.70;;;;;;;;;;4443579;32;20048;-88
2023/04/09 14:12:01;;;;;;;24.20;20.70;;;;;;;;;;4443165;32;20028;-85
2023/04/09 14:14:26;;;;;;;24.20;19.50;;;;;;;;;;4444562;32;20079;-88
2023/04/09 14:16:52;;;;;;;20.27;17.95;;;;;;;;;;4461787;32;20029;-86
2023/04/09 14:19:17;;;;;;;20.02;17.98;;;;;;;;;;4436178;32;20048;-85
2023/04/09 14:21:42;;;;;;;21.77;18.67;;;;;;;;;;4454030;32;20078;-86
2023/04/09 14:24:07;;;;;;;21.70;18.25;;;;;;;;;;4452086;32;20088;-86
2023/04/09 14:26:33;;;;;;;20.77;18.55;;;;;;;;;;4457658;32;20117;-86
2023/04/09 14:28:58;;;;;;;21.20;18.95;;;;;;;;;;4448295;32;20095;-85
2023/04/09 14:31:23;;;;;;;18.73;16.85;;;;;;;;;;4451729;32;20032;-87
2023/04/09 14:33:48;;;;;;;22.83;18.95;;;;;;;;;;4456749;32;20102;-86
2023/04/09 14:36:14;;;;;;;20.95;18.00;;;;;;;;;;4438498;32;20056;-87
2023/04/09 14:38:39;;;;;;;22.02;17.17;;;;;;;;;;4473568;32;20052;-87
2023/04/09 14:41:05;;;;;;;23.48;18.52;;;;;;;;;;4455924;32;20024;-85